sensor_id;sensor_type;location;lat;lon;timestamp;P1;durP1;ratioP1;P2;durP2;ratioP2
42414;SDS011;28058;46.344;17.786;2023-05-21T13:41:26;8.68;;;6.45;;
42414;SDS011;28058;46.344;17.786;2023-05-21T13:43:53;9.75;;;6.05;;
42414;SDS011;28058;46.344;17.786;2023-05-21T13:46:20;6.72;;;5.60;;
42414;SDS011;28058;46.344;17.786;2023-05-21T13:48:46;9.63;;;6.50;;
42414;SDS011;28058;46.344;17.786;2023-05-21T13:51:13;8.43;;;5.90;;
42414;SDS011;28058;46.344;17.786;2023-05-21T13:54:00;10.35;;;5.97;;
42414;SDS011;28058;46.344;17.786;2023-05-21T13:56:27;7.50;;;5.40;;
42414;SDS011;28058;46.344;17.786;2023-05-21T13:58:54;7.18;;;5.95;;
42414;SDS011;28058;46.344;17.786;2023-05-21T14:01:21;8.60;;;5.35;;
42414;SDS011;28058;46.344;17.786;2023-05-21T14:03:48;7.88;;;5.43;;
42414;SDS011;28058;46.344;17.786;2023-05-21T14:06:14;10.15;;;5.55;;
42414;SDS011;28058;46.344;17.786;2023-05-21T14:08:41;8.75;;;5.75;;
42414;SDS011;28058;46.344;17.786;2023-05-21T14:11:08;14.13;;;6.30;;
42414;SDS011;28058;46.344;17.786;2023-05-21T14:13:36;7.32;;;5.97;;
42414;SDS011;28058;46.344;17.786;2023-05-21T14:16:03;9.38;;;5.85;;
42414;SDS011;28058;46.344;17.786;2023-05-21T14:18:30;10.48;;;5.93;;
42414;SDS011;28058;46.344;17.786;2023-05-21T14:20:57;9.18;;;5.70;;
42414;SDS011;28058;46.344;17.786;2023-05-21T14:23:23;7.95;;;5.60;;
42414;SDS011;28058;46.344;17.786;2023-05-21T14:25:50;7.68;;;5.97;;
42414;SDS011;28058;46.344;17.786;2023-05-21T14:28:17;6.80;;;5.32;;
42414;SDS011;28058;46.344;17.786;2023-05-21T14:30:44;10.27;;;6.45;;
42414;SDS011;28058;46.344;17.786;2023-05-21T14:33:11;12.27;;;7.10;;
42414;SDS011;28058;46.344;17.786;2023-05-21T14:35:38;7.85;;;4.93;;
42414;SDS011;28058;46.344;17.786;2023-05-21T14:38:06;8.70;;;6.05;;
42414;SDS011;28058;46.344;17.786;2023-05-21T14:40:33;6.95;;;5.72;;
42414;SDS011;28058;46.344;17.786;2023-05-21T14:43:00;8.82;;;5.60;;
42414;SDS011;28058;46.344;17.786;2023-05-21T14:45:27;8.77;;;5.45;;
42414;SDS011;28058;46.344;17.786;2023-05-21T14:47:54;7.30;;;5.70;;
42414;SDS011;28058;46.344;17.786;2023-05-21T14:50:21;7.57;;;5.55;;
42414;SDS011;28058;46.344;17.786;2023-05-21T14:52:48;7.55;;;5.18;;
42414;SDS011;28058;46.344;17.786;2023-05-21T14:55:14;6.82;;;5.28;;
42414;SDS011;28058;46.344;17.786;2023-05-21T14:57:43;8.93;;;5.60;;
42414;SDS011;28058;46.344;17.786;2023-05-21T15:00:10;9.25;;;5.90;;
42414;SDS011;28058;46.344;17.786;2023-05-21T15:02:38;9.65;;;5.90;;
42414;SDS011;28058;46.344;17.786;2023-05-21T15:05:06;9.60;;;5.65;;
42414;SDS011;28058;46.344;17.786;2023-05-21T15:07:32;7.57;;;5.50;;
42414;SDS011;28058;46.344;17.786;2023-05-21T15:10:01;10.05;;;6.13;;
42414;SDS011;28058;46.344;17.786;2023-05-21T15:12:28;9.48;;;5.85;;
42414;SDS011;28058;46.344;17.786;2023-05-21T15:14:55;8.35;;;5.68;;
42414;SDS011;28058;46.344;17.786;2023-05-21T15:17:21;9.40;;;5.75;;
42414;SDS011;28058;46.344;17.786;2023-05-21T15:19:48;5.90;;;5.30;;
42414;SDS011;28058;46.344;17.786;2023-05-21T15:22:15;8.15;;;5.78;;
42414;SDS011;28058;46.344;17.786;2023-05-21T15:24:42;7.82;;;5.38;;
42414;SDS011;28058;46.344;17.786;2023-05-21T15:27:10;7.60;;;5.90;;
42414;SDS011;28058;46.344;17.786;2023-05-21T15:49:15;6.85;;;5.15;;
42414;SDS011;28058;46.344;17.786;2023-05-21T15:51:42;9.45;;;5.53;;
42414;SDS011;28058;46.344;17.786;2023-05-21T15:54:09;9.27;;;5.85;;
42414;SDS011;28058;46.344;17.786;2023-05-21T15:56:36;8.18;;;5.25;;
42414;SDS011;28058;46.344;17.786;2023-05-21T15:59:03;6.43;;;5.38;;
42414;SDS011;28058;46.344;17.786;2023-05-21T16:01:30;7.80;;;5.93;;
42414;SDS011;28058;46.344;17.786;2023-05-21T16:03:57;7.47;;;5.90;;
42414;SDS011;28058;46.344;17.786;2023-05-21T16:06:24;8.02;;;5.45;;
42414;SDS011;28058;46.344;17.786;2023-05-21T16:08:51;8.45;;;5.53;;
42414;SDS011;28058;46.344;17.786;2023-05-21T16:11:18;7.65;;;5.82;;
42414;SDS011;28058;46.344;17.786;2023-05-21T16:13:45;7.97;;;5.82;;
42414;SDS011;28058;46.344;17.786;2023-05-21T16:16:12;15.65;;;5.90;;
42414;SDS011;28058;46.344;17.786;2023-05-21T16:18:38;7.43;;;5.63;;
42414;SDS011;28058;46.344;17.786;2023-05-21T16:21:05;8.38;;;5.72;;
42414;SDS011;28058;46.344;17.786;2023-05-21T16:23:32;7.00;;;6.07;;
42414;SDS011;28058;46.344;17.786;2023-05-21T16:25:59;15.20;;;10.20;;
42414;SDS011;28058;46.344;17.786;2023-05-21T16:28:26;11.43;;;10.23;;
42414;SDS011;28058;46.344;17.786;2023-05-21T16:30:55;9.55;;;6.22;;
42414;SDS011;28058;46.344;17.786;2023-05-21T16:33:22;7.95;;;5.93;;
42414;SDS011;28058;46.344;17.786;2023-05-21T18:30:57;10.75;;;6.57;;
42414;SDS011;28058;46.344;17.786;2023-05-21T18:33:28;8.57;;;5.90;;
42414;SDS011;28058;46.344;17.786;2023-05-21T18:35:55;9.27;;;6.50;;
42414;SDS011;28058;46.344;17.786;2023-05-21T18:38:21;11.02;;;5.80;;
42414;SDS011;28058;46.344;17.786;2023-05-21T18:40:49;11.98;;;6.30;;
42414;SDS011;28058;46.344;17.786;2023-05-21T18:43:15;12.48;;;6.25;;
42414;SDS011;28058;46.344;17.786;2023-05-21T18:45:46;8.48;;;5.90;;
42414;SDS011;28058;46.344;17.786;2023-05-21T18:48:13;6.82;;;5.53;;
42414;SDS011;28058;46.344;17.786;2023-05-21T18:50:39;7.13;;;4.63;;
42414;SDS011;28058;46.344;17.786;2023-05-21T18:53:06;8.52;;;4.63;;
42414;SDS011;28058;46.344;17.786;2023-05-21T18:55:33;31.77;;;22.52;;
42414;SDS011;28058;46.344;17.786;2023-05-21T18:58:00;23.35;;;20.00;;
42414;SDS011;28058;46.344;17.786;2023-05-21T19:00:27;13.20;;;11.95;;
42414;SDS011;28058;46.344;17.786;2023-05-21T19:02:54;7.75;;;6.95;;
42414;SDS011;28058;46.344;17.786;2023-05-21T19:05:21;7.95;;;5.78;;
42414;SDS011;28058;46.344;17.786;2023-05-21T19:07:48;6.85;;;5.72;;
42414;SDS011;28058;46.344;17.786;2023-05-21T19:10:14;6.95;;;5.75;;
42414;SDS011;28058;46.344;17.786;2023-05-21T19:12:42;7.43;;;5.80;;
42414;SDS011;28058;46.344;17.786;2023-05-21T19:15:11;10.85;;;6.53;;
42414;SDS011;28058;46.344;17.786;2023-05-21T19:17:38;6.70;;;5.78;;
42414;SDS011;28058;46.344;17.786;2023-05-21T19:20:06;9.48;;;6.60;;
42414;SDS011;28058;46.344;17.786;2023-05-21T19:22:33;6.70;;;5.97;;
42414;SDS011;28058;46.344;17.786;2023-05-21T19:25:00;8.73;;;7.28;;
42414;SDS011;28058;46.344;17.786;2023-05-21T19:27:27;7.63;;;6.13;;
42414;SDS011;28058;46.344;17.786;2023-05-21T19:29:57;7.85;;;6.45;;
42414;SDS011;28058;46.344;17.786;2023-05-21T19:32:23;8.20;;;6.57;;
42414;SDS011;28058;46.344;17.786;2023-05-21T19:34:50;7.72;;;6.28;;
42414;SDS011;28058;46.344;17.786;2023-05-21T19:37:17;7.75;;;6.88;;
42414;SDS011;28058;46.344;17.786;2023-05-21T19:39:44;8.32;;;6.80;;
42414;SDS011;28058;46.344;17.786;2023-05-21T19:42:15;11.80;;;7.05;;
42414;SDS011;28058;46.344;17.786;2023-05-21T19:44:42;7.07;;;6.38;;
42414;SDS011;28058;46.344;17.786;2023-05-21T19:47:09;8.65;;;6.93;;
42414;SDS011;28058;46.344;17.786;2023-05-21T19:49:35;11.23;;;9.07;;
42414;SDS011;28058;46.344;17.786;2023-05-21T19:52:02;11.38;;;7.43;;
42414;SDS011;28058;46.344;17.786;2023-05-21T19:54:29;15.20;;;7.18;;
42414;SDS011;28058;46.344;17.786;2023-05-21T19:56:56;9.05;;;7.15;;
42414;SDS011;28058;46.344;17.786;2023-05-21T19:59:23;8.98;;;6.53;;
42414;SDS011;28058;46.344;17.786;2023-05-21T20:01:50;12.90;;;7.00;;
42414;SDS011;28058;46.344;17.786;2023-05-21T20:04:17;10.85;;;6.47;;
42414;SDS011;28058;46.344;17.786;2023-05-21T20:06:43;15.38;;;6.82;;
42414;SDS011;28058;46.344;17.786;2023-05-21T20:09:10;14.00;;;7.20;;
42414;SDS011;28058;46.344;17.786;2023-05-21T20:11:38;9.32;;;7.30;;
42414;SDS011;28058;46.344;17.786;2023-05-21T20:14:07;9.30;;;6.80;;
42414;SDS011;28058;46.344;17.786;2023-05-21T20:16:34;12.88;;;7.60;;
42414;SDS011;28058;46.344;17.786;2023-05-21T20:19:02;10.48;;;7.72;;
42414;SDS011;28058;46.344;17.786;2023-05-21T20:21:29;8.57;;;6.53;;
42414;SDS011;28058;46.344;17.786;2023-05-21T20:23:57;11.02;;;8.07;;
42414;SDS011;28058;46.344;17.786;2023-05-21T20:26:24;11.95;;;7.78;;
42414;SDS011;28058;46.344;17.786;2023-05-21T20:28:51;11.68;;;7.13;;
42414;SDS011;28058;46.344;17.786;2023-05-21T20:31:18;10.32;;;7.45;;
42414;SDS011;28058;46.344;17.786;2023-05-21T20:33:45;15.93;;;9.43;;
42414;SDS011;28058;46.344;17.786;2023-05-21T20:36:16;17.98;;;14.68;;
42414;SDS011;28058;46.344;17.786;2023-05-21T20:38:43;13.02;;;10.90;;
42414;SDS011;28058;46.344;17.786;2023-05-21T20:41:11;13.88;;;11.73;;
42414;SDS011;28058;46.344;17.786;2023-05-21T20:43:38;13.32;;;9.73;;
42414;SDS011;28058;46.344;17.786;2023-05-21T20:46:04;12.00;;;8.18;;
42414;SDS011;28058;46.344;17.786;2023-05-21T20:48:31;11.27;;;8.50;;
42414;SDS011;28058;46.344;17.786;2023-05-21T20:50:58;12.07;;;8.48;;
42414;SDS011;28058;46.344;17.786;2023-05-21T20:53:30;15.60;;;7.32;;
42414;SDS011;28058;46.344;17.786;2023-05-21T20:55:56;9.10;;;7.47;;
42414;SDS011;28058;46.344;17.786;2023-05-21T20:58:23;10.63;;;7.50;;
42414;SDS011;28058;46.344;17.786;2023-05-21T21:00:50;9.88;;;7.40;;
42414;SDS011;28058;46.344;17.786;2023-05-21T21:03:18;9.55;;;7.25;;
42414;SDS011;28058;46.344;17.786;2023-05-21T21:05:47;12.85;;;7.50;;
42414;SDS011;28058;46.344;17.786;2023-05-21T21:08:14;12.88;;;7.45;;
42414;SDS011;28058;46.344;17.786;2023-05-21T21:10:41;11.27;;;7.47;;
42414;SDS011;28058;46.344;17.786;2023-05-21T21:13:12;9.55;;;7.35;;
42414;SDS011;28058;46.344;17.786;2023-05-21T21:15:39;11.82;;;7.70;;
42414;SDS011;28058;46.344;17.786;2023-05-21T21:18:06;9.88;;;7.60;;
42414;SDS011;28058;46.344;17.786;2023-05-21T21:20:33;10.00;;;7.03;;
42414;SDS011;28058;46.344;17.786;2023-05-21T21:23:00;9.32;;;7.40;;
42414;SDS011;28058;46.344;17.786;2023-05-21T21:25:26;11.40;;;7.50;;
42414;SDS011;28058;46.344;17.786;2023-05-21T21:27:53;10.20;;;7.47;;
42414;SDS011;28058;46.344;17.786;2023-05-21T21:30:20;8.30;;;7.25;;
42414;SDS011;28058;46.344;17.786;2023-05-21T21:32:46;10.32;;;7.88;;
42414;SDS011;28058;46.344;17.786;2023-05-21T21:35:15;12.75;;;7.97;;
42414;SDS011;28058;46.344;17.786;2023-05-21T21:37:41;11.25;;;8.13;;
42414;SDS011;28058;46.344;17.786;2023-05-21T21:40:08;12.00;;;8.48;;
42414;SDS011;28058;46.344;17.786;2023-05-21T21:42:35;13.50;;;8.57;;
42414;SDS011;28058;46.344;17.786;2023-05-21T21:45:02;11.63;;;8.45;;
42414;SDS011;28058;46.344;17.786;2023-05-21T21:47:29;11.77;;;8.30;;
42414;SDS011;28058;46.344;17.786;2023-05-21T21:49:56;11.15;;;8.82;;
42414;SDS011;28058;46.344;17.786;2023-05-21T21:52:23;10.88;;;8.63;;
42414;SDS011;28058;46.344;17.786;2023-05-21T21:54:53;11.07;;;8.48;;
42414;SDS011;28058;46.344;17.786;2023-05-21T21:57:20;11.23;;;8.75;;
42414;SDS011;28058;46.344;17.786;2023-05-21T21:59:47;11.73;;;8.63;;
42414;SDS011;28058;46.344;17.786;2023-05-21T22:02:14;9.70;;;8.07;;
42414;SDS011;28058;46.344;17.786;2023-05-21T22:04:43;14.48;;;8.10;;
42414;SDS011;28058;46.344;17.786;2023-05-21T22:07:10;10.65;;;8.00;;
42414;SDS011;28058;46.344;17.786;2023-05-21T22:09:43;12.60;;;9.13;;
42414;SDS011;28058;46.344;17.786;2023-05-21T22:12:11;14.68;;;9.73;;
42414;SDS011;28058;46.344;17.786;2023-05-21T22:14:38;11.88;;;9.10;;
42414;SDS011;28058;46.344;17.786;2023-05-21T22:17:05;14.00;;;9.32;;
42414;SDS011;28058;46.344;17.786;2023-05-21T22:19:34;12.48;;;9.50;;
42414;SDS011;28058;46.344;17.786;2023-05-21T22:22:01;12.88;;;9.40;;
42414;SDS011;28058;46.344;17.786;2023-05-21T22:24:29;14.00;;;9.02;;
42414;SDS011;28058;46.344;17.786;2023-05-21T22:26:58;10.35;;;8.75;;
42414;SDS011;28058;46.344;17.786;2023-05-21T22:29:25;12.63;;;9.02;;
42414;SDS011;28058;46.344;17.786;2023-05-21T22:31:52;8.85;;;7.82;;
42414;SDS011;28058;46.344;17.786;2023-05-21T22:34:19;11.65;;;8.68;;
42414;SDS011;28058;46.344;17.786;2023-05-21T22:36:45;11.65;;;8.90;;
42414;SDS011;28058;46.344;17.786;2023-05-21T22:39:12;11.93;;;9.20;;
42414;SDS011;28058;46.344;17.786;2023-05-21T22:41:39;11.23;;;9.57;;
42414;SDS011;28058;46.344;17.786;2023-05-21T22:44:06;12.93;;;9.30;;
42414;SDS011;28058;46.344;17.786;2023-05-21T22:46:33;10.32;;;9.32;;
42414;SDS011;28058;46.344;17.786;2023-05-21T22:49:01;13.02;;;9.60;;
42414;SDS011;28058;46.344;17.786;2023-05-21T22:51:28;10.43;;;8.75;;
42414;SDS011;28058;46.344;17.786;2023-05-21T22:54:00;11.45;;;8.57;;
42414;SDS011;28058;46.344;17.786;2023-05-21T22:56:27;11.60;;;9.18;;
42414;SDS011;28058;46.344;17.786;2023-05-21T22:58:54;10.82;;;8.95;;
42414;SDS011;28058;46.344;17.786;2023-05-21T23:01:21;10.88;;;8.98;;
42414;SDS011;28058;46.344;17.786;2023-05-21T23:03:49;10.23;;;9.13;;
42414;SDS011;28058;46.344;17.786;2023-05-21T23:06:16;9.57;;;8.57;;
42414;SDS011;28058;46.344;17.786;2023-05-21T23:08:43;11.43;;;8.77;;
42414;SDS011;28058;46.344;17.786;2023-05-21T23:11:10;11.85;;;8.90;;
42414;SDS011;28058;46.344;17.786;2023-05-21T23:13:37;10.88;;;8.80;;
42414;SDS011;28058;46.344;17.786;2023-05-21T23:16:03;8.77;;;7.88;;
42414;SDS011;28058;46.344;17.786;2023-05-21T23:18:31;11.52;;;8.65;;
42414;SDS011;28058;46.344;17.786;2023-05-21T23:20:58;11.73;;;9.02;;
42414;SDS011;28058;46.344;17.786;2023-05-21T23:23:25;10.63;;;9.40;;
42414;SDS011;28058;46.344;17.786;2023-05-21T23:25:51;10.90;;;8.32;;
42414;SDS011;28058;46.344;17.786;2023-05-21T23:28:23;8.95;;;7.97;;
42414;SDS011;28058;46.344;17.786;2023-05-21T23:30:50;11.13;;;9.02;;
42414;SDS011;28058;46.344;17.786;2023-05-21T23:33:17;9.65;;;8.65;;
42414;SDS011;28058;46.344;17.786;2023-05-21T23:35:43;10.35;;;8.70;;
42414;SDS011;28058;46.344;17.786;2023-05-21T23:38:10;12.00;;;8.52;;
42414;SDS011;28058;46.344;17.786;2023-05-21T23:40:37;12.35;;;8.43;;
42414;SDS011;28058;46.344;17.786;2023-05-21T23:43:04;12.85;;;9.40;;
42414;SDS011;28058;46.344;17.786;2023-05-21T23:45:31;12.90;;;8.65;;
42414;SDS011;28058;46.344;17.786;2023-05-21T23:47:58;13.85;;;9.05;;
42414;SDS011;28058;46.344;17.786;2023-05-21T23:50:24;11.88;;;9.05;;
42414;SDS011;28058;46.344;17.786;2023-05-21T23:52:51;13.50;;;9.70;;
